Time;durP1;ratioP1;P1;durP2;ratioP2;P2;SDS_P1;SDS_P2;PMS_P1;PMS_P2;Temp;Humidity;BMP_temperature;BMP_pressure;BME280_temperature;BME280_humidity;BME280_pressure;Samples;Min_cycle;Max_cycle;Signal;HPM_P1;HPM_P2
2023/01/08 00:00:56;;;;;;;;;5.33;4.00;;;;;13.11;66.57;100435.22;1957825;28;2748247;-83
2023/01/08 00:02:06;;;;;;;;;5.00;4.33;;;;;13.12;66.69;100437.78;1978027;28;2737845;-84
2023/01/08 00:03:17;;;;;;;;;7.00;7.00;;;;;13.11;66.61;100432.59;2002130;28;2743399;-83
2023/01/08 00:04:31;;;;;;;;;5.00;4.33;;;;;13.12;66.61;100427.22;1980617;28;2742978;-83
2023/01/08 00:05:44;;;;;;;;;4.50;4.50;;;;;13.12;66.53;100421.09;1981650;28;2744082;-84
2023/01/08 00:06:57;;;;;;;;;7.67;6.67;;;;;13.13;66.70;100428.09;1980384;28;2730513;-83
2023/01/08 00:08:08;;;;;;;;;8.33;7.33;;;;;13.14;66.36;100424.50;1978072;28;3466975;-83
2023/01/08 00:09:19;;;;;;;;;5.00;5.00;;;;;13.14;66.58;100421.84;1983237;28;2740925;-84
2023/01/08 00:10:30;;;;;;;;;8.33;7.00;;;;;13.15;66.70;100419.16;2011032;28;2743005;-83
2023/01/08 00:11:43;;;;;;;;;5.00;5.00;;;;;13.15;66.79;100423.59;1989035;28;2742978;-83
2023/01/08 00:12:55;;;;;;;;;5.00;5.00;;;;;13.13;66.34;100413.13;1964034;28;2743364;-83
2023/01/08 00:14:08;;;;;;;;;6.83;5.67;;;;;13.13;66.59;100420.16;2018926;28;2746084;-83
2023/01/08 00:15:21;;;;;;;;;4.33;4.33;;;;;13.14;66.72;100413.94;1994945;28;2746143;-83
2023/01/08 00:16:35;;;;;;;;;6.83;6.00;;;;;13.14;66.60;100419.22;1989254;28;2737782;-83
2023/01/08 00:17:45;;;;;;;;;3.67;3.67;;;;;13.13;66.46;100412.25;1961993;28;2754447;-84
2023/01/08 00:18:57;;;;;;;;;7.67;7.00;;;;;13.14;66.26;100412.16;2011365;28;2739844;-84
2023/01/08 00:20:10;;;;;;;;;3.83;3.17;;;;;13.13;66.51;100406.97;1989857;28;2738804;-83
2023/01/08 00:21:23;;;;;;;;;5.50;4.50;;;;;13.14;66.45;100403.38;2011228;28;2742969;-83
2023/01/08 00:22:34;;;;;;;;;4.33;4.33;;;;;13.13;66.49;100404.34;1962962;28;2749261;-83
2023/01/08 00:23:45;;;;;;;;;7.00;5.00;;;;;13.13;66.45;100412.25;2010493;28;2743376;-84
2023/01/08 00:24:59;;;;;;;;;6.67;6.50;;;;;13.10;66.48;100401.84;1975719;28;2742977;-83
2023/01/08 00:26:14;;;;;;;;;6.33;5.00;;;;;13.11;66.42;100400.94;2011050;28;2743018;-84
2023/01/08 00:27:27;;;;;;;;;4.50;4.17;;;;;13.12;66.35;100410.53;1982806;28;2743013;-84
2023/01/08 00:28:41;;;;;;;;;6.83;4.00;;;;;13.12;66.36;100421.94;1989876;28;2752356;-84
2023/01/08 00:29:54;;;;;;;;;7.33;7.00;;;;;13.12;66.18;100415.81;1989983;28;2742992;-83
2023/01/08 00:31:09;;;;;;;;;7.00;5.00;;;;;13.12;66.52;100413.16;1963150;28;3458626;-83
2023/01/08 00:32:22;;;;;;;;;8.00;6.83;;;;;13.12;66.43;100407.88;2020860;28;2735777;-83
2023/01/08 00:33:36;;;;;;;;;5.50;5.00;;;;;13.13;66.68;100409.63;2019134;28;2750277;-83
2023/01/08 00:34:49;;;;;;;;;4.50;3.50;;;;;13.13;65.94;100421.03;1990127;28;2738839;-83
2023/01/08 00:36:12;;;;;;;;;5.00;5.00;;;;;13.11;66.58;100411.47;1990639;28;2732554;-83
2023/01/08 00:37:23;;;;;;;;;10.33;7.00;;;;;13.11;66.44;100408.84;1963942;28;2758604;-84
2023/01/08 00:38:37;;;;;;;;;8.50;5.50;;;;;13.10;66.50;100401.84;2013093;28;2740902;-83
2023/01/08 00:39:50;;;;;;;;;8.33;6.17;;;;;13.09;66.38;100411.53;1990238;28;2747545;-83
2023/01/08 00:41:00;;;;;;;;;6.67;4.67;;;;;13.10;66.56;100401.84;1963865;28;2748206;-83
2023/01/08 00:42:11;;;;;;;;;5.00;3.67;;;;;13.09;66.27;100405.44;2019685;28;2739860;-84
2023/01/08 00:43:25;;;;;;;;;7.33;6.50;;;;;13.09;66.19;100402.78;1997908;28;2737786;-83
2023/01/08 00:44:35;;;;;;;;;7.00;5.67;;;;;13.05;66.54;100397.66;1960664;28;2743082;-83
2023/01/08 00:45:46;;;;;;;;;6.00;6.00;;;;;13.04;66.30;100403.84;2011374;28;2745049;-84
2023/01/08 00:46:59;;;;;;;;;4.33;4.00;;;;;13.03;66.26;100402.16;1990483;28;2747700;-82
2023/01/08 00:48:12;;;;;;;;;5.00;5.00;;;;;13.03;66.12;100401.28;1989107;28;2744044;-83
2023/01/08 00:49:23;;;;;;;;;6.67;4.33;;;;;13.01;66.33;100401.34;1959076;28;2743020;-83
2023/01/08 00:50:34;;;;;;;;;3.67;3.67;;;;;13.02;66.54;100399.56;1995937;28;2751807;-83
2023/01/08 00:51:46;;;;;;;;;5.75;5.25;;;;;13.00;66.32;100398.78;2003673;28;2746152;-83
2023/01/08 00:52:59;;;;;;;;;6.67;5.00;;;;;12.99;66.38;100391.81;1997475;28;2746111;-83
2023/01/08 00:54:12;;;;;;;;;4.17;4.17;;;;;13.00;66.42;100382.97;1975562;28;2751783;-83
2023/01/08 00:55:26;;;;;;;;;8.83;4.83;;;;;13.00;66.39;100390.88;1981222;28;2752382;-83
2023/01/08 00:56:39;;;;;;;;;4.50;3.50;;;;;12.99;66.15;100379.47;1987309;28;2744031;-84
2023/01/08 00:57:52;;;;;;;;;4.33;4.17;;;;;12.99;66.39;100391.81;1987574;28;2739189;-83
2023/01/08 00:59:03;;;;;;;;;7.00;4.00;;;;;12.98;66.18;100385.69;1964270;28;2752384;-84
2023/01/08 01:00:15;;;;;;;;;4.67;4.67;;;;;12.98;66.55;100388.34;2010248;28;2743002;-83
2023/01/08 01:01:28;;;;;;;;;7.00;4.50;;;;;12.99;66.51;100391.81;1989276;28;2739918;-83
2023/01/08 01:02:41;;;;;;;;;5.17;4.67;;;;;13.00;66.32;100390.88;1988929;28;2752365;-83
2023/01/08 01:03:55;;;;;;;;;3.83;3.83;;;;;12.99;66.04;100391.81;1990277;28;2754455;-83
2023/01/08 01:05:09;;;;;;;;;8.33;6.83;;;;;12.97;65.88;100381.34;1990384;28;2731559;-84
2023/01/08 01:06:20;;;;;;;;;4.00;4.00;;;;;12.98;66.16;100392.75;1986981;28;2754445;-83
2023/01/08 01:07:33;;;;;;;;;4.20;3.60;;;;;12.99;66.24;100386.56;2011261;28;2750254;-83
2023/01/08 01:08:46;;;;;;;;;5.83;4.33;;;;;12.99;66.30;100387.38;2005205;28;2745093;-83
2023/01/08 01:10:00;;;;;;;;;4.67;4.33;;;;;12.99;66.39;100382.09;1982305;28;2740898;-83
2023/01/08 01:11:21;;;;;;;;;3.33;3.33;;;;;13.01;66.09;100379.41;1989361;28;2752356;-83
2023/01/08 01:12:37;;;;;;;;;4.83;3.83;;;;;13.01;66.27;100385.53;1987144;28;2749216;-83
2023/01/08 01:13:48;;;;;;;;;5.00;4.67;;;;;13.00;65.92;100375.91;1964664;28;2750302;-83
2023/01/08 01:15:00;;;;;;;;;5.00;3.20;;;;;13.00;66.12;100381.19;2010123;28;2752353;-83
2023/01/08 01:16:11;;;;;;;;;3.67;3.67;;;;;13.01;66.57;100376.78;1981908;28;2752348;-83
2023/01/08 01:17:23;;;;;;;;;6.75;4.00;;;;;13.01;66.18;100376.78;2011295;28;2746098;-83
2023/01/08 01:18:36;;;;;;;;;4.83;3.67;;;;;13.01;65.93;100369.69;2012812;28;2750297;-83
2023/01/08 01:19:49;;;;;;;;;4.83;4.17;;;;;13.00;65.98;100362.72;1996883;28;2750317;-83
2023/01/08 01:21:34;;;;;;;;;5.17;3.50;;;;;13.00;65.96;100369.78;1996063;28;2751342;-84
2023/01/08 01:22:47;;;;;;;;;4.33;2.50;;;;;12.99;65.98;100376.00;1981941;28;2732577;-84
2023/01/08 01:24:04;;;;;;;;;1.33;1.33;;;;;12.98;65.93;100374.28;1985955;28;2734275;-83
2023/01/08 01:25:18;;;;;;;;;4.17;2.67;;;;;12.97;65.70;100365.50;1989775;28;2735694;-83
2023/01/08 01:26:33;;;;;;;;;4.00;3.33;;;;;12.97;65.84;100376.06;2012367;28;2750278;-83
2023/01/08 01:27:46;;;;;;;;;1.67;1.67;;;;;12.96;65.94;100369.09;1990459;28;2741959;-83
2023/01/08 01:28:59;;;;;;;;;3.50;3.50;;;;;12.96;65.93;100369.09;2012603;28;2749783;-84
2023/01/08 01:30:13;;;;;;;;;3.83;1.50;;;;;12.97;66.09;100364.66;1990695;28;2732578;-83
2023/01/08 01:31:25;;;;;;;;;4.00;4.00;;;;;12.98;65.97;100367.22;1960325;28;2748301;-83
2023/01/08 01:32:38;;;;;;;;;3.50;3.50;;;;;12.98;65.83;100363.72;2004419;28;2746151;-83
2023/01/08 01:33:52;;;;;;;;;3.50;3.50;;;;;12.96;65.55;100368.22;1983928;28;2748182;-84
2023/01/08 01:35:05;;;;;;;;;5.50;3.17;;;;;12.94;65.57;100363.00;1990008;28;2754435;-83
2023/01/08 01:36:24;;;;;;;;;3.50;3.00;;;;;12.94;65.70;100363.00;1990016;28;2740930;-83
2023/01/08 01:37:37;;;;;;;;;2.33;2.33;;;;;12.92;65.84;100378.94;1996932;28;2746111;-84
2023/01/08 01:38:53;;;;;;;;;3.33;3.17;;;;;12.93;65.94;100374.50;2018985;28;2731543;-83
2023/01/08 01:40:06;;;;;;;;;4.00;0.00;;;;;12.92;65.54;100372.78;1997889;28;2731536;-83
2023/01/08 01:41:41;;;;;;;;;5.33;4.00;;;;;12.93;66.15;100374.50;2018611;28;2741925;-83
2023/01/08 01:42:54;;;;;;;;;2.67;2.50;;;;;12.94;66.15;100378.84;1989729;28;2749231;-83
2023/01/08 01:44:44;;;;;;;;;2.83;2.67;;;;;12.94;65.69;100377.06;1989965;28;2734676;-83
2023/01/08 01:45:54;;;;;;;;;4.67;4.00;;;;;12.95;65.77;100372.66;1955396;28;2754479;-83
2023/01/08 01:47:29;;;;;;;;;3.00;3.00;;;;;12.97;65.57;100378.69;1995298;28;2740366;-83
2023/01/08 01:48:40;;;;;;;;;8.00;3.33;;;;;12.97;65.61;100377.84;1979905;28;2746438;-83
2023/01/08 01:49:59;;;;;;;;;3.00;2.33;;;;;12.96;65.21;100377.00;2012445;28;2737778;-83
2023/01/08 01:51:13;;;;;;;;;3.00;3.00;;;;;12.98;65.68;100379.56;1996103;28;2745065;-83
2023/01/08 01:52:29;;;;;;;;;3.67;3.33;;;;;12.96;65.34;100379.63;2015520;28;2749247;-82
2023/01/08 01:53:43;;;;;;;;;3.83;3.00;;;;;12.96;65.47;100382.28;1982030;28;2739838;-82
2023/01/08 01:54:58;;;;;;;;;3.33;3.00;;;;;12.97;65.70;100377.84;1982585;28;2736763;-82
2023/01/08 01:56:11;;;;;;;;;3.50;3.00;;;;;12.98;65.70;100382.19;1987832;28;2744003;-82
2023/01/08 01:57:25;;;;;;;;;3.00;3.00;;;;;12.98;65.82;100382.19;1996681;28;2738814;-82
2023/01/08 01:58:38;;;;;;;;;3.00;3.00;;;;;12.97;65.74;100376.06;1996132;28;2741972;-83
2023/01/08 01:59:53;;;;;;;;;3.50;3.00;;;;;12.98;65.40;100382.19;1989213;28;2741937;-83
2023/01/08 02:01:08;;;;;;;;;2.17;2.17;;;;;12.98;65.45;100382.19;2013529;28;2740907;-82
2023/01/08 02:02:22;;;;;;;;;4.00;3.00;;;;;12.96;65.48;100379.63;1996056;28;2745080;-83
2023/01/08 02:03:37;;;;;;;;;2.00;2.00;;;;;12.96;65.42;100384.06;1981917;28;2738807;-83
2023/01/08 02:04:50;;;;;;;;;3.00;3.00;;;;;12.95;65.69;100383.19;1983196;28;2728394;-83
2023/01/08 02:06:24;;;;;;;;;3.00;2.00;;;;;12.94;65.19;100387.63;1986273;28;2750297;-81
2023/01/08 02:08:05;;;;;;;;;3.83;2.00;;;;;12.92;65.66;100391.25;1996528;28;2751341;-84
2023/01/08 02:09:57;;;;;;;;;2.67;1.83;;;;;12.91;65.39;100393.03;1992014;28;2733634;-84
2023/01/08 02:11:17;;;;;;;;;1.83;1.83;;;;;12.90;65.35;100388.69;1973837;28;2740909;-83
2023/01/08 02:12:57;;;;;;;;;3.00;2.83;;;;;12.89;65.41;100389.63;1976280;28;2751318;-83
2023/01/08 02:14:31;;;;;;;;;3.00;2.00;;;;;12.91;65.28;100381.66;1984742;28;2754420;-83
2023/01/08 02:15:57;;;;;;;;;3.17;1.67;;;;;12.91;65.16;100374.56;1990133;28;2736720;-83
2023/01/08 02:17:18;;;;;;;;;4.83;2.00;;;;;12.92;65.21;100391.25;1989701;28;2750265;-83
2023/01/08 02:18:40;;;;;;;;;3.67;2.50;;;;;12.93;65.11;100379.78;1990327;28;2734668;-83
2023/01/08 02:20:05;;;;;;;;;2.00;2.00;;;;;12.91;64.95;100381.66;1997663;28;2728458;-84
2023/01/08 02:21:32;;;;;;;;;3.00;2.33;;;;;12.92;64.97;100383.34;1987112;28;2728443;-85
2023/01/08 02:23:03;;;;;;;;;4.33;2.00;;;;;12.90;65.15;100379.94;1988836;28;2747132;-84
2023/01/08 02:24:44;;;;;;;;;3.17;3.00;;;;;12.88;64.91;100393.19;1989724;28;2747164;-84
2023/01/08 02:26:20;;;;;;;;;2.67;2.67;;;;;12.87;64.97;100382.69;1963831;28;2740910;-84
2023/01/08 02:27:34;;;;;;;;;3.00;3.00;;;;;12.86;65.14;100386.28;1986872;28;2736824;-83
2023/01/08 02:28:50;;;;;;;;;2.00;2.00;;;;;12.86;65.18;100386.28;2010549;28;2748205;-84
2023/01/08 02:30:05;;;;;;;;;3.00;1.33;;;;;12.85;65.05;100381.94;1982110;28;2742091;-83
2023/01/08 02:31:20;;;;;;;;;3.17;1.83;;;;;12.84;65.32;100391.63;1989330;28;2744037;-83
2023/01/08 02:32:37;;;;;;;;;2.17;2.00;;;;;12.82;65.34;100382.94;1990595;28;2739281;-83
2023/01/08 02:33:48;;;;;;;;;5.33;2.00;;;;;12.83;65.29;100385.50;1964341;28;2754428;-84
2023/01/08 02:34:59;;;;;;;;;2.67;2.67;;;;;12.82;65.26;100382.94;2012393;28;2729433;-83
2023/01/08 02:36:37;;;;;;;;;2.17;2.17;;;;;12.80;65.35;100377.75;1989301;28;2741948;-83
2023/01/08 02:37:50;;;;;;;;;4.50;3.33;;;;;12.80;65.19;100380.38;1987778;28;2741916;-83
2023/01/08 02:39:26;;;;;;;;;3.50;1.67;;;;;12.81;65.47;100387.38;2011487;28;2750273;-83
2023/01/08 02:40:59;;;;;;;;;1.67;1.67;;;;;12.80;65.74;100390.94;1988338;28;2740913;-84
2023/01/08 02:42:31;;;;;;;;;5.67;2.17;;;;;12.82;65.40;100388.22;1990125;28;2746106;-83
2023/01/08 02:43:48;;;;;;;;;2.50;2.00;;;;;12.82;65.29;100381.16;1996854;28;2744546;-84
2023/01/08 02:45:08;;;;;;;;;1.00;1.00;;;;;12.82;65.42;100373.25;1996330;28;2741929;-83
2023/01/08 02:46:29;;;;;;;;;2.50;1.17;;;;;12.83;65.43;100379.38;1980950;28;2749220;-83
2023/01/08 02:48:01;;;;;;;;;2.17;1.33;;;;;12.84;65.43;100378.44;1982706;28;2733967;-83
2023/01/08 02:49:15;;;;;;;;;2.67;2.17;;;;;12.83;65.46;100374.09;1984284;28;2741931;-83
2023/01/08 02:50:35;;;;;;;;;2.33;1.17;;;;;12.83;65.63;100380.25;1990130;28;2735698;-83
2023/01/08 02:51:52;;;;;;;;;1.83;1.17;;;;;12.84;65.54;100378.44;1983327;28;2725303;-83
2023/01/08 02:53:21;;;;;;;;;3.50;2.00;;;;;12.84;65.52;100373.16;1981937;28;2744363;-83
2023/01/08 02:54:36;;;;;;;;;2.00;2.00;;;;;12.85;65.45;100366.09;1981496;28;2748175;-83
2023/01/08 02:55:54;;;;;;;;;2.00;2.00;;;;;12.85;65.42;100376.66;1981929;28;2744043;-84
2023/01/08 02:57:12;;;;;;;;;4.67;1.67;;;;;12.81;65.45;100376.81;1989015;28;2746095;-87
2023/01/08 02:58:28;;;;;;;;;2.00;2.00;;;;;12.81;65.26;100379.47;1990227;28;2717406;-84
2023/01/08 02:59:46;;;;;;;;;4.83;2.00;;;;;12.80;65.55;100375.09;1986616;28;2741933;-84
2023/01/08 03:01:05;;;;;;;;;1.50;1.50;;;;;12.82;65.33;100375.03;1983157;28;2725279;-84
2023/01/08 03:02:19;;;;;;;;;1.83;1.17;;;;;12.80;65.31;100371.59;1989422;28;2725270;-83
2023/01/08 03:03:33;;;;;;;;;1.17;1.17;;;;;12.78;65.36;100379.59;2010791;28;2735683;-84
2023/01/08 03:04:53;;;;;;;;;2.17;2.00;;;;;12.78;65.56;100376.97;2004219;28;2746172;-83
2023/01/08 03:06:09;;;;;;;;;1.50;1.00;;;;;12.78;65.36;100376.97;1982290;28;2725282;-83
2023/01/08 03:07:22;;;;;;;;;1.83;1.83;;;;;12.78;65.46;100373.47;2009566;28;2737859;-83
2023/01/08 03:08:39;;;;;;;;;1.17;1.17;;;;;12.79;65.76;100370.75;2013051;28;2733603;-84
2023/01/08 03:09:54;;;;;;;;;3.17;0.00;;;;;12.79;65.37;100364.63;2012285;28;2725290;-84
2023/01/08 03:11:11;;;;;;;;;2.83;1.83;;;;;12.78;65.54;100368.19;2011799;28;2729691;-83
2023/01/08 03:12:42;;;;;;;;;2.17;2.17;;;;;12.77;65.75;100369.97;1992453;28;2737782;-83
2023/01/08 03:14:00;;;;;;;;;1.83;1.00;;;;;12.76;65.55;100368.28;2009172;28;2736727;-83
2023/01/08 03:15:23;;;;;;;;;2.00;1.33;;;;;12.75;65.52;100368.34;2004585;28;2739849;-84
2023/01/08 03:17:12;;;;;;;;;1.00;1.00;;;;;12.74;65.61;100353.47;1988589;28;2724229;-83
2023/01/08 03:18:33;;;;;;;;;2.00;1.00;;;;;12.76;65.79;100354.22;2012065;28;2735682;-83
2023/01/08 03:19:54;;;;;;;;;1.33;1.33;;;;;12.76;65.91;100356.88;2011994;28;2733624;-83
2023/01/08 03:21:09;;;;;;;;;1.00;1.00;;;;;12.75;65.65;100352.50;2011595;28;2734095;-84
2023/01/08 03:22:23;;;;;;;;;4.00;1.00;;;;;12.74;65.91;100350.81;2012441;28;2731517;-83
2023/01/08 03:23:38;;;;;;;;;3.00;2.00;;;;;12.72;65.34;100353.50;2012593;28;2744003;-85
2023/01/08 03:24:54;;;;;;;;;2.50;1.50;;;;;12.73;65.81;100341.19;1997956;28;2733611;-83
2023/01/08 03:26:08;;;;;;;;;1.33;1.33;;;;;12.69;65.71;100346.59;2011489;28;2741268;-83
2023/01/08 03:27:25;;;;;;;;;1.00;1.00;;;;;12.68;65.75;100347.53;2013638;28;2720450;-83
2023/01/08 03:28:45;;;;;;;;;1.00;1.00;;;;;12.67;65.74;100342.31;2013944;28;2725278;-83
2023/01/08 03:29:59;;;;;;;;;2.00;1.67;;;;;12.67;65.88;100345.81;2011236;28;2740262;-83
2023/01/08 03:31:15;;;;;;;;;2.50;2.00;;;;;12.65;65.73;100346.81;2010828;28;2749218;-82
2023/01/08 03:32:29;;;;;;;;;1.17;0.50;;;;;12.64;65.99;100348.63;1990989;28;2729468;-83
2023/01/08 03:33:45;;;;;;;;;1.00;1.00;;;;;12.63;65.71;100351.31;2012786;28;2736717;-83
2023/01/08 03:35:01;;;;;;;;;2.00;0.83;;;;;12.59;65.91;100343.56;2007291;28;2736749;-83
2023/01/08 03:36:17;;;;;;;;;2.33;2.00;;;;;12.58;65.82;100344.50;1980260;28;2751310;-82
2023/01/08 03:37:37;;;;;;;;;2.17;2.17;;;;;12.58;65.75;100349.78;2018064;28;2730566;-86
2023/01/08 03:38:58;;;;;;;;;3.17;1.17;;;;;12.57;66.15;100337.50;1997706;28;2726847;-83
2023/01/08 03:40:18;;;;;;;;;2.17;1.50;;;;;12.56;65.95;100341.09;2017260;28;2749235;-83
2023/01/08 03:41:34;;;;;;;;;2.00;1.50;;;;;12.57;66.13;100341.91;2005354;28;2744008;-83
2023/01/08 03:42:48;;;;;;;;;2.83;1.83;;;;;12.56;66.13;100343.72;2004028;28;2748205;-84
2023/01/08 03:44:02;;;;;;;;;2.00;0.83;;;;;12.57;66.06;100336.63;1989416;28;2733638;-84
2023/01/08 03:45:15;;;;;;;;;2.00;2.00;;;;;12.58;66.04;100344.50;1989798;28;2737770;-83
2023/01/08 03:46:33;;;;;;;;;1.00;1.00;;;;;12.58;66.28;100344.50;1992048;28;2727369;-83
2023/01/08 03:47:46;;;;;;;;;3.17;3.00;;;;;12.58;65.82;100331.31;1998142;28;2750800;-84
2023/01/08 03:49:01;;;;;;;;;1.00;1.00;;;;;12.58;66.08;100328.69;1983378;28;2726331;-83
2023/01/08 03:50:20;;;;;;;;;3.00;1.33;;;;;12.59;65.90;100324.28;2011731;28;2740895;-84
2023/01/08 03:51:45;;;;;;;;;2.50;1.17;;;;;12.59;65.73;100333.00;2013077;28;2731532;-84
2023/01/08 03:52:58;;;;;;;;;1.67;1.00;;;;;12.60;66.23;100329.44;2011682;28;2738836;-83
2023/01/08 03:54:15;;;;;;;;;1.33;1.33;;;;;12.60;66.01;100332.09;1975256;28;2735699;-83
2023/01/08 03:55:28;;;;;;;;;1.33;1.33;;;;;12.61;66.21;100335.59;1982357;28;2731553;-83
2023/01/08 03:56:41;;;;;;;;;3.50;2.00;;;;;12.62;65.88;100339.91;2007363;28;2753393;-83
2023/01/08 03:57:54;;;;;;;;;0.17;0.17;;;;;12.62;65.95;100339.09;1989660;28;2729433;-83
2023/01/08 03:59:10;;;;;;;;;1.50;1.50;;;;;12.62;66.00;100334.63;2005931;28;2719032;-83
2023/01/08 04:00:23;;;;;;;;;1.33;1.33;;;;;12.63;65.79;100331.09;1982116;28;2735683;-83
2023/01/08 04:01:36;;;;;;;;;2.50;1.33;;;;;12.64;65.91;100332.81;2006802;28;2740350;-83
2023/01/08 04:02:50;;;;;;;;;1.33;1.33;;;;;12.65;66.05;100323.97;2020548;28;2733650;-83
2023/01/08 04:04:03;;;;;;;;;3.00;1.50;;;;;12.66;66.25;100325.69;2020604;28;2729421;-83
2023/01/08 04:05:16;;;;;;;;;1.17;1.17;;;;;12.67;65.78;100318.59;1995562;28;2735691;-83
2023/01/08 04:06:29;;;;;;;;;1.83;1.50;;;;;12.67;65.53;100321.22;2010377;28;2733610;-83
2023/01/08 04:07:43;;;;;;;;;3.67;2.00;;;;;12.68;65.91;100317.69;2013348;28;2734648;-83
2023/01/08 04:08:56;;;;;;;;;2.33;1.17;;;;;12.68;65.92;100325.59;1990003;28;2727370;-83
2023/01/08 04:10:09;;;;;;;;;1.00;1.00;;;;;12.68;65.61;100318.53;2012217;28;2725786;-83
2023/01/08 04:11:22;;;;;;;;;1.00;1.00;;;;;12.69;65.98;100319.41;2012637;28;2725266;-84
2023/01/08 04:12:35;;;;;;;;;1.67;1.00;;;;;12.68;65.85;100318.53;2013901;28;2719032;-83
2023/01/08 04:13:49;;;;;;;;;1.50;1.50;;;;;12.69;65.59;100316.75;2012161;28;2730467;-84
2023/01/08 04:14:59;;;;;;;;;4.00;2.00;;;;;12.68;65.93;100309.78;1986440;28;2754440;-83
2023/01/08 04:16:10;;;;;;;;;1.00;1.00;;;;;12.67;65.38;100301.00;2011239;28;2727837;-83
2023/01/08 04:17:24;;;;;;;;;2.33;0.83;;;;;12.65;65.57;100305.50;1990099;28;2733655;-83
2023/01/08 04:18:37;;;;;;;;;2.33;1.00;;;;;12.65;65.62;100304.63;2013521;28;2733639;-83
2023/01/08 04:19:50;;;;;;;;;2.50;1.33;;;;;12.65;65.51;100304.63;1989484;28;2731532;-83
2023/01/08 04:21:03;;;;;;;;;1.00;1.00;;;;;12.65;65.55;100302.88;2006391;28;2728910;-83
2023/01/08 04:22:16;;;;;;;;;2.00;1.00;;;;;12.66;65.60;100296.66;2013818;28;2725267;-83
2023/01/08 04:23:30;;;;;;;;;1.33;1.00;;;;;12.65;66.03;100297.59;2012568;28;2724237;-83
2023/01/08 04:24:43;;;;;;;;;2.83;2.00;;;;;12.65;65.76;100291.47;2007564;28;2737766;-83
2023/01/08 04:25:56;;;;;;;;;1.00;1.00;;;;;12.64;65.62;100292.41;1981412;28;2724229;-83
2023/01/08 04:27:09;;;;;;;;;2.00;1.50;;;;;12.64;65.50;100288.00;2011678;28;2722185;-83
2023/01/08 04:28:23;;;;;;;;;0.50;0.50;;;;;12.65;65.68;100299.38;1997758;28;2725258;-83
2023/01/08 04:29:36;;;;;;;;;3.67;1.83;;;;;12.65;65.38;100288.81;2011871;28;2741933;-83
2023/01/08 04:30:50;;;;;;;;;2.00;2.00;;;;;12.63;65.56;100286.28;1989619;28;2724341;-83
2023/01/08 04:32:03;;;;;;;;;1.00;1.00;;;;;12.63;65.57;100285.41;1990626;28;2731531;-83
2023/01/08 04:33:16;;;;;;;;;1.00;1.00;;;;;12.63;65.75;100288.03;1989510;28;2733595;-83
2023/01/08 04:34:30;;;;;;;;;1.00;1.00;;;;;12.64;65.37;100295.03;1987885;28;2725294;-85
2023/01/08 04:35:43;;;;;;;;;1.00;1.00;;;;;12.60;65.42;100283.78;2004067;28;2722150;-83
2023/01/08 04:36:56;;;;;;;;;2.50;1.00;;;;;12.59;65.51;100287.34;2008877;28;2729460;-82
2023/01/08 04:38:09;;;;;;;;;1.67;1.17;;;;;12.58;65.08;100285.63;2013714;28;2722137;-84
2023/01/08 04:39:22;;;;;;;;;1.00;1.00;;;;;12.57;65.51;100290.06;2012078;28;2734633;-84
2023/01/08 04:40:36;;;;;;;;;1.00;1.00;;;;;12.57;65.81;100281.28;2013040;28;2719013;-83
2023/01/08 04:41:49;;;;;;;;;1.83;0.83;;;;;12.57;65.77;100283.91;2012498;28;2730499;-83
2023/01/08 04:43:02;;;;;;;;;2.67;2.00;;;;;12.56;65.63;100283.09;2006592;28;2754476;-83
2023/01/08 04:44:15;;;;;;;;;1.17;0.67;;;;;12.56;65.71;100280.44;1988071;28;2728398;-83
2023/01/08 04:45:28;;;;;;;;;2.00;2.00;;;;;12.57;65.56;100281.28;2013754;28;2750338;-83
2023/01/08 04:46:39;;;;;;;;;2.00;2.00;;;;;12.57;65.57;100278.66;1970888;28;2745117;-83
2023/01/08 04:47:57;;;;;;;;;3.00;0.00;;;;;12.56;65.75;100272.53;2004309;28;2716925;-84
2023/01/08 04:49:11;;;;;;;;;1.67;1.17;;;;;12.56;65.65;100264.63;2012292;28;2726844;-83
2023/01/08 04:50:25;;;;;;;;;3.33;2.00;;;;;12.56;65.74;100267.28;2017591;28;2751342;-81
2023/01/08 04:51:39;;;;;;;;;0.67;0.50;;;;;12.57;65.49;100262.81;1989490;28;2730467;-84
2023/01/08 04:52:52;;;;;;;;;2.00;1.17;;;;;12.57;65.54;100266.31;2010349;28;2719040;-84
2023/01/08 04:54:05;;;;;;;;;2.17;1.17;;;;;12.57;65.51;100254.91;2008360;28;2728399;-85
2023/01/08 04:55:19;;;;;;;;;2.00;1.83;;;;;12.58;65.44;100257.50;2007438;28;2729759;-84
2023/01/08 04:56:32;;;;;;;;;2.00;2.00;;;;;12.57;65.56;100254.91;2011535;28;2745129;-83
2023/01/08 04:57:46;;;;;;;;;2.33;1.67;;;;;12.56;65.31;100256.72;1981310;28;2749211;-84
2023/01/08 04:59:00;;;;;;;;;1.00;1.00;;;;;12.55;65.54;100254.16;1990377;28;2734046;-84
2023/01/08 05:00:13;;;;;;;;;1.33;1.00;;;;;12.54;65.64;100253.31;2019292;28;2729815;-83
2023/01/08 05:01:27;;;;;;;;;1.33;1.17;;;;;12.53;65.56;100256.88;1989603;28;2728410;-85
2023/01/08 05:02:38;;;;;;;;;5.33;3.00;;;;;12.53;65.26;100264.78;1962458;28;2754443;-83
2023/01/08 05:03:59;;;;;;;;;2.00;1.20;;;;;12.52;65.62;100259.59;2018785;28;2736752;-83
2023/01/08 05:05:13;;;;;;;;;1.00;1.00;;;;;12.49;65.32;100250.03;2018042;28;2729433;-83
2023/01/08 05:06:28;;;;;;;;;1.00;1.00;;;;;12.48;65.56;100243.06;2012197;28;2729815;-83
2023/01/08 05:07:41;;;;;;;;;2.00;2.00;;;;;12.49;65.49;100250.03;2011972;28;2746103;-84
2023/01/08 05:08:54;;;;;;;;;1.17;1.17;;;;;12.49;65.58;100248.25;1981772;28;2737789;-83
2023/01/08 05:10:08;;;;;;;;;1.17;1.17;;;;;12.48;65.59;100251.81;2004911;28;2734645;-83
2023/01/08 05:11:21;;;;;;;;;2.17;1.33;;;;;12.47;65.71;100241.38;1982449;28;2727385;-83
2023/01/08 05:12:35;;;;;;;;;2.83;1.83;;;;;12.47;65.64;100242.19;2006562;28;2737769;-84
2023/01/08 05:13:49;;;;;;;;;2.00;2.00;;;;;12.47;65.76;100244.00;2013613;28;2739854;-84
2023/01/08 05:15:02;;;;;;;;;2.17;1.00;;;;;12.47;65.85;100236.94;1991166;28;2732581;-83
2023/01/08 05:16:16;;;;;;;;;3.33;1.17;;;;;12.47;65.83;100239.56;2014614;28;2715342;-84
2023/01/08 05:17:29;;;;;;;;;1.00;1.00;;;;;12.47;65.65;100244.00;1982721;28;2731531;-83
2023/01/08 05:18:44;;;;;;;;;2.00;2.00;;;;;12.46;65.78;100234.38;1982834;28;2744051;-83
2023/01/08 05:19:57;;;;;;;;;1.00;1.00;;;;;12.45;65.73;100248.47;2014318;28;2725254;-83
2023/01/08 05:21:10;;;;;;;;;2.00;2.00;;;;;12.44;65.54;100246.78;2011708;28;2740255;-83
2023/01/08 05:22:24;;;;;;;;;3.17;1.00;;;;;12.42;66.14;100241.56;2014601;28;2712205;-84
2023/01/08 05:23:37;;;;;;;;;1.00;1.00;;;;;12.43;66.26;100245.06;1991219;28;2729445;-83
2023/01/08 05:24:50;;;;;;;;;1.00;1.00;;;;;12.43;66.60;100252.97;2015442;28;2727362;-84
2023/01/08 05:26:05;;;;;;;;;1.33;1.33;;;;;12.41;66.71;100252.19;2012528;28;2731531;-84
2023/01/08 05:27:18;;;;;;;;;1.00;1.00;;;;;12.40;66.85;100250.47;2014030;28;2727341;-83
2023/01/08 05:28:32;;;;;;;;;1.17;1.17;;;;;12.38;67.06;100254.06;2011895;28;2749279;-83
2023/01/08 05:29:45;;;;;;;;;2.67;0.67;;;;;12.37;67.24;100247.06;2013848;28;2725274;-86
2023/01/08 05:30:58;;;;;;;;;4.67;1.00;;;;;12.38;67.00;100240.03;2020532;28;2732562;-84
2023/01/08 05:32:17;;;;;;;;;6.50;1.00;;;;;12.37;67.08;100238.31;1997012;28;2718404;-84
2023/01/08 05:33:30;;;;;;;;;2.00;1.33;;;;;12.35;67.12;100242.78;1988138;28;2741956;-84
2023/01/08 05:34:44;;;;;;;;;3.50;2.00;;;;;12.34;67.14;100235.84;2011091;28;2751302;-84
2023/01/08 05:35:57;;;;;;;;;0.17;0.17;;;;;12.33;67.22;100227.06;1991887;28;2725290;-84
2023/01/08 05:37:11;;;;;;;;;2.50;1.00;;;;;12.32;67.04;100238.53;2013099;28;2724273;-84
2023/01/08 05:38:24;;;;;;;;;1.33;0.50;;;;;12.32;67.21;100235.88;2007295;28;2725267;-85
2023/01/08 05:39:37;;;;;;;;;1.00;1.00;;;;;12.30;66.42;100247.47;2015500;28;2725262;-84
2023/01/08 05:40:51;;;;;;;;;1.50;1.50;;;;;12.29;67.03;100237.84;2012448;28;2735735;-83
2023/01/08 05:42:05;;;;;;;;;1.50;1.50;;;;;12.27;67.14;100243.19;2012383;28;2735667;-84
2023/01/08 05:43:18;;;;;;;;;1.00;1.00;;;;;12.25;67.25;100239.75;2020896;28;2734645;-83
2023/01/08 05:44:31;;;;;;;;;1.67;0.50;;;;;12.24;67.50;100251.22;2017947;28;2737791;-84
2023/01/08 05:45:44;;;;;;;;;0.83;0.83;;;;;12.23;67.54;100282.00;2021819;28;2725262;-84